sensor_id;sensor_type;location;lat;lon;timestamp;P1;durP1;ratioP1;P2;durP2;ratioP2
30872;SDS011;17579;42.690;2.586;2022-12-29T00:00:49;9.77;;;4.82;;
30872;SDS011;17579;42.690;2.586;2022-12-29T00:03:14;5.43;;;4.45;;
30872;SDS011;17579;42.690;2.586;2022-12-29T00:05:40;6.65;;;4.82;;
30872;SDS011;17579;42.690;2.586;2022-12-29T00:08:06;6.45;;;5.18;;
30872;SDS011;17579;42.690;2.586;2022-12-29T00:10:31;5.65;;;4.78;;
30872;SDS011;17579;42.690;2.586;2022-12-29T00:12:58;5.60;;;4.50;;
30872;SDS011;17579;42.690;2.586;2022-12-29T00:15:35;7.95;;;4.50;;
30872;SDS011;17579;42.690;2.586;2022-12-29T00:18:04;5.88;;;4.47;;
30872;SDS011;17579;42.690;2.586;2022-12-29T00:20:33;8.00;;;4.75;;
30872;SDS011;17579;42.690;2.586;2022-12-29T00:23:11;8.15;;;4.90;;
30872;SDS011;17579;42.690;2.586;2022-12-29T00:25:48;5.55;;;4.60;;
30872;SDS011;17579;42.690;2.586;2022-12-29T00:28:26;9.48;;;5.70;;
30872;SDS011;17579;42.690;2.586;2022-12-29T00:31:03;10.25;;;6.47;;
30872;SDS011;17579;42.690;2.586;2022-12-29T00:33:48;8.82;;;6.07;;
30872;SDS011;17579;42.690;2.586;2022-12-29T00:36:35;8.32;;;5.28;;
30872;SDS011;17579;42.690;2.586;2022-12-29T00:39:08;7.57;;;5.07;;
30872;SDS011;17579;42.690;2.586;2022-12-29T00:41:51;8.60;;;5.65;;
30872;SDS011;17579;42.690;2.586;2022-12-29T00:44:28;6.32;;;4.50;;
30872;SDS011;17579;42.690;2.586;2022-12-29T00:46:54;7.15;;;4.88;;
30872;SDS011;17579;42.690;2.586;2022-12-29T00:49:19;5.07;;;4.57;;
30872;SDS011;17579;42.690;2.586;2022-12-29T00:51:58;8.48;;;5.70;;
30872;SDS011;17579;42.690;2.586;2022-12-29T00:54:26;6.53;;;5.32;;
30872;SDS011;17579;42.690;2.586;2022-12-29T00:56:52;7.93;;;5.25;;
30872;SDS011;17579;42.690;2.586;2022-12-29T00:59:18;7.07;;;5.15;;
30872;SDS011;17579;42.690;2.586;2022-12-29T01:01:45;6.13;;;5.40;;
30872;SDS011;17579;42.690;2.586;2022-12-29T01:04:11;7.63;;;5.50;;
30872;SDS011;17579;42.690;2.586;2022-12-29T01:06:38;7.43;;;5.50;;
30872;SDS011;17579;42.690;2.586;2022-12-29T01:09:04;9.20;;;5.65;;
30872;SDS011;17579;42.690;2.586;2022-12-29T01:11:43;7.40;;;5.38;;
30872;SDS011;17579;42.690;2.586;2022-12-29T01:14:08;9.00;;;5.97;;
30872;SDS011;17579;42.690;2.586;2022-12-29T01:16:34;7.35;;;6.03;;
30872;SDS011;17579;42.690;2.586;2022-12-29T01:19:01;7.47;;;5.97;;
30872;SDS011;17579;42.690;2.586;2022-12-29T01:21:27;9.02;;;5.55;;
30872;SDS011;17579;42.690;2.586;2022-12-29T01:23:53;7.45;;;5.80;;
30872;SDS011;17579;42.690;2.586;2022-12-29T01:26:18;8.90;;;6.07;;
30872;SDS011;17579;42.690;2.586;2022-12-29T01:28:44;8.25;;;6.40;;
30872;SDS011;17579;42.690;2.586;2022-12-29T01:31:10;8.15;;;6.25;;
30872;SDS011;17579;42.690;2.586;2022-12-29T01:33:38;9.82;;;6.05;;
30872;SDS011;17579;42.690;2.586;2022-12-29T01:36:04;9.57;;;6.78;;
30872;SDS011;17579;42.690;2.586;2022-12-29T01:38:32;7.90;;;5.97;;
30872;SDS011;17579;42.690;2.586;2022-12-29T01:40:58;7.85;;;6.40;;
30872;SDS011;17579;42.690;2.586;2022-12-29T01:46:13;8.38;;;6.05;;
30872;SDS011;17579;42.690;2.586;2022-12-29T01:51:49;9.57;;;5.68;;
30872;SDS011;17579;42.690;2.586;2022-12-29T01:54:26;7.50;;;5.38;;
30872;SDS011;17579;42.690;2.586;2022-12-29T01:56:56;7.93;;;5.90;;
30872;SDS011;17579;42.690;2.586;2022-12-29T01:59:26;10.05;;;5.32;;
30872;SDS011;17579;42.690;2.586;2022-12-29T02:01:56;9.40;;;6.05;;
30872;SDS011;17579;42.690;2.586;2022-12-29T02:04:23;10.70;;;6.07;;
30872;SDS011;17579;42.690;2.586;2022-12-29T02:06:53;8.18;;;5.22;;
30872;SDS011;17579;42.690;2.586;2022-12-29T02:09:22;7.43;;;5.55;;
30872;SDS011;17579;42.690;2.586;2022-12-29T02:11:48;6.60;;;5.05;;
30872;SDS011;17579;42.690;2.586;2022-12-29T02:14:14;8.80;;;4.50;;
30872;SDS011;17579;42.690;2.586;2022-12-29T02:25:34;7.40;;;5.28;;
30872;SDS011;17579;42.690;2.586;2022-12-29T02:37:12;6.07;;;5.00;;
30872;SDS011;17579;42.690;2.586;2022-12-29T02:39:50;7.45;;;5.13;;
30872;SDS011;17579;42.690;2.586;2022-12-29T02:42:41;5.32;;;4.65;;
30872;SDS011;17579;42.690;2.586;2022-12-29T02:45:22;6.10;;;4.20;;
30872;SDS011;17579;42.690;2.586;2022-12-29T02:48:10;8.23;;;4.80;;
30872;SDS011;17579;42.690;2.586;2022-12-29T02:50:50;5.95;;;4.35;;
30872;SDS011;17579;42.690;2.586;2022-12-29T02:53:25;6.07;;;4.85;;
30872;SDS011;17579;42.690;2.586;2022-12-29T02:56:05;7.00;;;5.07;;
30872;SDS011;17579;42.690;2.586;2022-12-29T02:58:31;8.00;;;5.07;;
30872;SDS011;17579;42.690;2.586;2022-12-29T03:07:02;5.30;;;4.05;;
30872;SDS011;17579;42.690;2.586;2022-12-29T03:12:30;5.88;;;4.35;;
30872;SDS011;17579;42.690;2.586;2022-12-29T03:15:23;8.45;;;4.32;;
30872;SDS011;17579;42.690;2.586;2022-12-29T03:18:13;8.40;;;3.95;;
30872;SDS011;17579;42.690;2.586;2022-12-29T03:23:33;7.70;;;4.65;;
30872;SDS011;17579;42.690;2.586;2022-12-29T03:26:02;4.63;;;3.95;;
30872;SDS011;17579;42.690;2.586;2022-12-29T03:28:32;7.22;;;4.68;;
30872;SDS011;17579;42.690;2.586;2022-12-29T03:31:02;6.90;;;4.50;;
30872;SDS011;17579;42.690;2.586;2022-12-29T03:33:29;6.60;;;4.28;;
30872;SDS011;17579;42.690;2.586;2022-12-29T03:35:58;7.60;;;5.00;;
30872;SDS011;17579;42.690;2.586;2022-12-29T03:41:20;6.72;;;3.80;;
30872;SDS011;17579;42.690;2.586;2022-12-29T03:43:51;5.95;;;4.13;;
30872;SDS011;17579;42.690;2.586;2022-12-29T03:46:16;6.95;;;4.40;;
30872;SDS011;17579;42.690;2.586;2022-12-29T03:48:42;5.55;;;4.25;;
30872;SDS011;17579;42.690;2.586;2022-12-29T03:51:07;6.13;;;4.57;;
30872;SDS011;17579;42.690;2.586;2022-12-29T03:53:33;6.38;;;4.30;;
30872;SDS011;17579;42.690;2.586;2022-12-29T03:55:58;6.35;;;4.15;;
30872;SDS011;17579;42.690;2.586;2022-12-29T03:58:24;6.75;;;4.45;;
30872;SDS011;17579;42.690;2.586;2022-12-29T04:00:49;5.63;;;4.22;;
30872;SDS011;17579;42.690;2.586;2022-12-29T04:03:15;5.97;;;4.35;;
30872;SDS011;17579;42.690;2.586;2022-12-29T04:05:40;6.38;;;4.45;;
30872;SDS011;17579;42.690;2.586;2022-12-29T04:08:06;4.68;;;3.97;;
30872;SDS011;17579;42.690;2.586;2022-12-29T04:10:31;5.70;;;4.13;;
30872;SDS011;17579;42.690;2.586;2022-12-29T04:12:57;7.18;;;3.67;;
30872;SDS011;17579;42.690;2.586;2022-12-29T04:15:22;6.18;;;4.00;;
30872;SDS011;17579;42.690;2.586;2022-12-29T04:17:49;6.13;;;4.43;;
30872;SDS011;17579;42.690;2.586;2022-12-29T04:20:14;5.78;;;3.83;;
30872;SDS011;17579;42.690;2.586;2022-12-29T04:22:59;5.85;;;4.40;;
30872;SDS011;17579;42.690;2.586;2022-12-29T04:25:25;11.65;;;7.05;;
30872;SDS011;17579;42.690;2.586;2022-12-29T04:27:51;8.88;;;6.18;;
30872;SDS011;17579;42.690;2.586;2022-12-29T04:30:17;8.68;;;5.28;;
30872;SDS011;17579;42.690;2.586;2022-12-29T04:32:42;9.68;;;4.75;;
30872;SDS011;17579;42.690;2.586;2022-12-29T04:35:08;5.20;;;4.60;;
30872;SDS011;17579;42.690;2.586;2022-12-29T04:37:33;7.68;;;4.28;;
30872;SDS011;17579;42.690;2.586;2022-12-29T04:39:59;6.22;;;4.55;;
30872;SDS011;17579;42.690;2.586;2022-12-29T04:42:26;6.95;;;4.03;;
30872;SDS011;17579;42.690;2.586;2022-12-29T04:44:51;9.15;;;4.35;;
30872;SDS011;17579;42.690;2.586;2022-12-29T04:47:17;6.97;;;3.90;;
30872;SDS011;17579;42.690;2.586;2022-12-29T04:49:42;9.90;;;4.88;;
30872;SDS011;17579;42.690;2.586;2022-12-29T04:52:08;5.50;;;4.47;;
30872;SDS011;17579;42.690;2.586;2022-12-29T04:54:33;5.28;;;3.85;;
30872;SDS011;17579;42.690;2.586;2022-12-29T04:56:59;5.55;;;4.18;;
30872;SDS011;17579;42.690;2.586;2022-12-29T04:59:25;7.82;;;4.63;;
30872;SDS011;17579;42.690;2.586;2022-12-29T05:01:51;4.35;;;3.80;;
30872;SDS011;17579;42.690;2.586;2022-12-29T05:04:16;6.25;;;3.95;;
30872;SDS011;17579;42.690;2.586;2022-12-29T05:06:42;5.35;;;4.10;;
30872;SDS011;17579;42.690;2.586;2022-12-29T05:09:07;9.07;;;4.50;;
30872;SDS011;17579;42.690;2.586;2022-12-29T05:11:33;6.80;;;4.40;;
30872;SDS011;17579;42.690;2.586;2022-12-29T05:13:58;7.03;;;4.78;;
30872;SDS011;17579;42.690;2.586;2022-12-29T05:16:24;6.50;;;5.20;;
30872;SDS011;17579;42.690;2.586;2022-12-29T05:18:49;5.03;;;4.40;;
30872;SDS011;17579;42.690;2.586;2022-12-29T05:21:15;8.70;;;4.85;;
30872;SDS011;17579;42.690;2.586;2022-12-29T05:23:40;5.35;;;4.07;;
30872;SDS011;17579;42.690;2.586;2022-12-29T05:26:06;8.55;;;4.30;;
30872;SDS011;17579;42.690;2.586;2022-12-29T05:28:31;4.88;;;4.13;;
30872;SDS011;17579;42.690;2.586;2022-12-29T05:30:57;5.65;;;3.50;;
30872;SDS011;17579;42.690;2.586;2022-12-29T05:33:22;7.28;;;4.32;;
30872;SDS011;17579;42.690;2.586;2022-12-29T05:35:48;6.22;;;4.13;;
30872;SDS011;17579;42.690;2.586;2022-12-29T05:38:13;6.25;;;3.90;;
30872;SDS011;17579;42.690;2.586;2022-12-29T05:40:39;5.95;;;3.25;;
30872;SDS011;17579;42.690;2.586;2022-12-29T05:43:05;5.85;;;4.00;;
30872;SDS011;17579;42.690;2.586;2022-12-29T05:45:30;4.07;;;3.47;;
30872;SDS011;17579;42.690;2.586;2022-12-29T05:47:56;5.82;;;3.50;;
30872;SDS011;17579;42.690;2.586;2022-12-29T05:50:21;6.13;;;3.70;;
30872;SDS011;17579;42.690;2.586;2022-12-29T05:52:47;5.05;;;4.10;;
30872;SDS011;17579;42.690;2.586;2022-12-29T05:55:12;5.53;;;3.90;;
30872;SDS011;17579;42.690;2.586;2022-12-29T05:57:38;4.78;;;3.40;;
30872;SDS011;17579;42.690;2.586;2022-12-29T06:00:04;6.05;;;3.92;;
30872;SDS011;17579;42.690;2.586;2022-12-29T06:02:30;6.65;;;3.90;;
30872;SDS011;17579;42.690;2.586;2022-12-29T06:04:56;6.00;;;3.72;;
30872;SDS011;17579;42.690;2.586;2022-12-29T06:07:21;5.38;;;3.88;;
30872;SDS011;17579;42.690;2.586;2022-12-29T06:09:47;5.65;;;4.03;;
30872;SDS011;17579;42.690;2.586;2022-12-29T06:12:12;10.35;;;4.22;;
30872;SDS011;17579;42.690;2.586;2022-12-29T06:14:38;6.10;;;3.83;;
30872;SDS011;17579;42.690;2.586;2022-12-29T06:17:03;6.95;;;3.85;;
30872;SDS011;17579;42.690;2.586;2022-12-29T06:19:29;5.15;;;4.32;;
30872;SDS011;17579;42.690;2.586;2022-12-29T06:21:54;6.80;;;3.90;;
30872;SDS011;17579;42.690;2.586;2022-12-29T06:24:20;7.05;;;4.20;;
30872;SDS011;17579;42.690;2.586;2022-12-29T06:26:46;5.50;;;3.92;;
30872;SDS011;17579;42.690;2.586;2022-12-29T06:29:11;6.53;;;3.75;;
30872;SDS011;17579;42.690;2.586;2022-12-29T06:31:41;6.35;;;4.75;;
30872;SDS011;17579;42.690;2.586;2022-12-29T06:34:08;6.63;;;4.20;;
30872;SDS011;17579;42.690;2.586;2022-12-29T06:36:34;7.68;;;5.05;;
30872;SDS011;17579;42.690;2.586;2022-12-29T06:38:59;5.43;;;3.78;;
30872;SDS011;17579;42.690;2.586;2022-12-29T06:41:25;8.30;;;4.15;;
30872;SDS011;17579;42.690;2.586;2022-12-29T06:43:50;6.40;;;4.40;;
30872;SDS011;17579;42.690;2.586;2022-12-29T06:46:16;5.78;;;4.43;;
30872;SDS011;17579;42.690;2.586;2022-12-29T06:48:41;5.30;;;4.32;;
30872;SDS011;17579;42.690;2.586;2022-12-29T06:51:07;6.05;;;3.85;;
30872;SDS011;17579;42.690;2.586;2022-12-29T06:53:33;6.72;;;4.22;;
30872;SDS011;17579;42.690;2.586;2022-12-29T06:55:58;5.40;;;4.18;;
30872;SDS011;17579;42.690;2.586;2022-12-29T06:58:24;7.22;;;4.93;;
30872;SDS011;17579;42.690;2.586;2022-12-29T07:00:49;7.05;;;4.65;;
30872;SDS011;17579;42.690;2.586;2022-12-29T07:03:15;6.47;;;4.68;;
30872;SDS011;17579;42.690;2.586;2022-12-29T07:05:41;7.68;;;4.72;;
30872;SDS011;17579;42.690;2.586;2022-12-29T07:08:06;7.40;;;4.90;;
30872;SDS011;17579;42.690;2.586;2022-12-29T07:10:32;6.32;;;4.63;;
30872;SDS011;17579;42.690;2.586;2022-12-29T07:12:57;9.93;;;4.80;;
30872;SDS011;17579;42.690;2.586;2022-12-29T07:15:23;8.15;;;4.88;;
30872;SDS011;17579;42.690;2.586;2022-12-29T07:17:48;5.13;;;4.55;;
30872;SDS011;17579;42.690;2.586;2022-12-29T07:20:17;5.35;;;4.43;;
30872;SDS011;17579;42.690;2.586;2022-12-29T07:22:43;5.60;;;4.43;;
30872;SDS011;17579;42.690;2.586;2022-12-29T07:25:08;7.35;;;4.63;;
30872;SDS011;17579;42.690;2.586;2022-12-29T07:27:34;6.10;;;4.43;;
30872;SDS011;17579;42.690;2.586;2022-12-29T07:30:00;6.68;;;4.05;;
30872;SDS011;17579;42.690;2.586;2022-12-29T07:32:25;6.00;;;4.28;;
30872;SDS011;17579;42.690;2.586;2022-12-29T07:34:51;6.10;;;4.10;;
30872;SDS011;17579;42.690;2.586;2022-12-29T07:37:16;5.35;;;4.25;;
30872;SDS011;17579;42.690;2.586;2022-12-29T07:39:42;8.23;;;4.32;;
30872;SDS011;17579;42.690;2.586;2022-12-29T07:42:08;5.97;;;4.25;;
30872;SDS011;17579;42.690;2.586;2022-12-29T07:44:34;5.78;;;3.75;;
30872;SDS011;17579;42.690;2.586;2022-12-29T07:46:59;5.80;;;3.58;;
30872;SDS011;17579;42.690;2.586;2022-12-29T07:49:25;6.78;;;3.72;;
30872;SDS011;17579;42.690;2.586;2022-12-29T07:51:50;6.88;;;4.18;;
30872;SDS011;17579;42.690;2.586;2022-12-29T07:54:16;10.95;;;3.83;;
30872;SDS011;17579;42.690;2.586;2022-12-29T07:56:44;6.70;;;4.22;;
30872;SDS011;17579;42.690;2.586;2022-12-29T07:59:10;7.90;;;3.90;;
30872;SDS011;17579;42.690;2.586;2022-12-29T08:01:37;4.85;;;3.65;;
30872;SDS011;17579;42.690;2.586;2022-12-29T08:04:03;7.47;;;4.50;;
30872;SDS011;17579;42.690;2.586;2022-12-29T08:06:29;9.40;;;5.68;;
30872;SDS011;17579;42.690;2.586;2022-12-29T08:08:55;6.85;;;4.90;;
30872;SDS011;17579;42.690;2.586;2022-12-29T08:11:22;6.88;;;4.90;;
30872;SDS011;17579;42.690;2.586;2022-12-29T08:13:48;9.40;;;4.95;;
30872;SDS011;17579;42.690;2.586;2022-12-29T08:16:13;8.27;;;5.43;;
30872;SDS011;17579;42.690;2.586;2022-12-29T08:18:39;7.30;;;5.78;;
30872;SDS011;17579;42.690;2.586;2022-12-29T08:21:05;7.85;;;5.25;;
30872;SDS011;17579;42.690;2.586;2022-12-29T08:23:30;9.77;;;5.65;;
30872;SDS011;17579;42.690;2.586;2022-12-29T08:26:00;7.28;;;5.00;;
30872;SDS011;17579;42.690;2.586;2022-12-29T08:28:27;7.30;;;5.40;;
30872;SDS011;17579;42.690;2.586;2022-12-29T08:30:54;6.47;;;5.00;;
30872;SDS011;17579;42.690;2.586;2022-12-29T08:33:22;9.48;;;5.75;;
30872;SDS011;17579;42.690;2.586;2022-12-29T08:35:48;8.00;;;5.50;;
30872;SDS011;17579;42.690;2.586;2022-12-29T08:38:13;9.55;;;5.32;;
30872;SDS011;17579;42.690;2.586;2022-12-29T08:40:39;6.40;;;4.18;;
30872;SDS011;17579;42.690;2.586;2022-12-29T08:43:04;8.07;;;5.43;;
30872;SDS011;17579;42.690;2.586;2022-12-29T08:45:30;7.32;;;5.47;;
30872;SDS011;17579;42.690;2.586;2022-12-29T08:47:56;8.07;;;4.65;;
30872;SDS011;17579;42.690;2.586;2022-12-29T08:50:21;6.43;;;5.15;;
30872;SDS011;17579;42.690;2.586;2022-12-29T08:52:47;7.90;;;5.93;;
30872;SDS011;17579;42.690;2.586;2022-12-29T08:55:12;6.75;;;5.13;;
30872;SDS011;17579;42.690;2.586;2022-12-29T08:57:38;6.30;;;4.68;;
30872;SDS011;17579;42.690;2.586;2022-12-29T09:00:04;4.60;;;3.70;;
30872;SDS011;17579;42.690;2.586;2022-12-29T09:02:30;5.60;;;4.05;;
30872;SDS011;17579;42.690;2.586;2022-12-29T09:04:55;7.22;;;4.50;;
30872;SDS011;17579;42.690;2.586;2022-12-29T09:07:22;6.03;;;3.90;;
30872;SDS011;17579;42.690;2.586;2022-12-29T09:09:48;4.45;;;3.92;;
30872;SDS011;17579;42.690;2.586;2022-12-29T09:12:15;4.75;;;3.83;;
30872;SDS011;17579;42.690;2.586;2022-12-29T09:14:41;5.75;;;3.53;;
30872;SDS011;17579;42.690;2.586;2022-12-29T09:17:08;4.45;;;3.45;;
30872;SDS011;17579;42.690;2.586;2022-12-29T09:19:46;5.18;;;3.17;;
30872;SDS011;17579;42.690;2.586;2022-12-29T09:22:11;4.18;;;2.80;;
30872;SDS011;17579;42.690;2.586;2022-12-29T09:24:37;5.82;;;3.15;;
30872;SDS011;17579;42.690;2.586;2022-12-29T09:27:02;9.80;;;3.20;;
30872;SDS011;17579;42.690;2.586;2022-12-29T09:29:28;5.15;;;3.10;;
30872;SDS011;17579;42.690;2.586;2022-12-29T09:31:53;4.50;;;2.70;;
30872;SDS011;17579;42.690;2.586;2022-12-29T09:34:19;3.75;;;2.70;;
30872;SDS011;17579;42.690;2.586;2022-12-29T09:36:44;4.47;;;2.92;;
30872;SDS011;17579;42.690;2.586;2022-12-29T09:39:10;5.10;;;2.55;;
30872;SDS011;17579;42.690;2.586;2022-12-29T09:41:45;7.13;;;2.95;;
30872;SDS011;17579;42.690;2.586;2022-12-29T09:47:30;4.07;;;2.70;;
30872;SDS011;17579;42.690;2.586;2022-12-29T09:49:57;5.13;;;3.13;;
30872;SDS011;17579;42.690;2.586;2022-12-29T09:52:35;6.05;;;3.65;;
30872;SDS011;17579;42.690;2.586;2022-12-29T09:55:09;5.63;;;3.13;;
30872;SDS011;17579;42.690;2.586;2022-12-29T09:57:43;5.07;;;2.78;;
30872;SDS011;17579;42.690;2.586;2022-12-29T10:00:38;4.82;;;2.80;;
30872;SDS011;17579;42.690;2.586;2022-12-29T10:03:17;4.95;;;2.97;;
30872;SDS011;17579;42.690;2.586;2022-12-29T10:08:44;7.18;;;2.88;;
30872;SDS011;17579;42.690;2.586;2022-12-29T10:11:24;4.68;;;2.75;;
30872;SDS011;17579;42.690;2.586;2022-12-29T10:17:02;7.25;;;3.95;;
30872;SDS011;17579;42.690;2.586;2022-12-29T10:26:01;4.43;;;3.55;;
30872;SDS011;17579;42.690;2.586;2022-12-29T10:28:48;5.45;;;3.53;;
30872;SDS011;17579;42.690;2.586;2022-12-29T10:31:24;5.50;;;3.97;;
30872;SDS011;17579;42.690;2.586;2022-12-29T10:34:13;8.70;;;4.47;;
30872;SDS011;17579;42.690;2.586;2022-12-29T10:37:00;7.13;;;4.28;;
30872;SDS011;17579;42.690;2.586;2022-12-29T10:39:45;5.05;;;4.10;;
30872;SDS011;17579;42.690;2.586;2022-12-29T10:42:28;8.50;;;4.28;;
30872;SDS011;17579;42.690;2.586;2022-12-29T10:45:05;9.82;;;4.80;;
30872;SDS011;17579;42.690;2.586;2022-12-29T10:47:39;5.65;;;4.13;;
30872;SDS011;17579;42.690;2.586;2022-12-29T10:53:20;8.68;;;5.22;;
30872;SDS011;17579;42.690;2.586;2022-12-29T10:55:50;9.63;;;5.65;;
30872;SDS011;17579;42.690;2.586;2022-12-29T10:58:16;6.32;;;4.80;;
30872;SDS011;17579;42.690;2.586;2022-12-29T11:00:43;7.20;;;4.70;;
30872;SDS011;17579;42.690;2.586;2022-12-29T11:08:58;7.00;;;5.13;;
30872;SDS011;17579;42.690;2.586;2022-12-29T11:11:40;6.18;;;4.82;;
30872;SDS011;17579;42.690;2.586;2022-12-29T11:14:17;9.45;;;4.72;;
30872;SDS011;17579;42.690;2.586;2022-12-29T11:16:45;8.43;;;4.78;;
30872;SDS011;17579;42.690;2.586;2022-12-29T11:19:24;6.05;;;4.10;;
30872;SDS011;17579;42.690;2.586;2022-12-29T11:21:51;7.65;;;3.65;;
30872;SDS011;17579;42.690;2.586;2022-12-29T11:24:24;6.75;;;4.30;;
30872;SDS011;17579;42.690;2.586;2022-12-29T11:26:52;6.35;;;4.60;;
30872;SDS011;17579;42.690;2.586;2022-12-29T11:29:23;4.70;;;3.55;;
30872;SDS011;17579;42.690;2.586;2022-12-29T11:31:56;5.22;;;3.38;;
30872;SDS011;17579;42.690;2.586;2022-12-29T11:34:31;8.35;;;3.45;;
30872;SDS011;17579;42.690;2.586;2022-12-29T11:37:00;5.28;;;3.92;;
30872;SDS011;17579;42.690;2.586;2022-12-29T11:39:32;6.53;;;4.60;;
30872;SDS011;17579;42.690;2.586;2022-12-29T11:42:03;12.55;;;6.90;;
30872;SDS011;17579;42.690;2.586;2022-12-29T11:44:35;11.35;;;8.05;;
30872;SDS011;17579;42.690;2.586;2022-12-29T11:47:06;10.73;;;7.47;;
30872;SDS011;17579;42.690;2.586;2022-12-29T11:49:36;14.98;;;7.35;;
30872;SDS011;17579;42.690;2.586;2022-12-29T11:52:03;13.32;;;7.60;;
30872;SDS011;17579;42.690;2.586;2022-12-29T11:54:29;11.90;;;8.15;;
30872;SDS011;17579;42.690;2.586;2022-12-29T11:57:08;12.93;;;7.78;;
30872;SDS011;17579;42.690;2.586;2022-12-29T11:59:41;13.65;;;7.35;;
30872;SDS011;17579;42.690;2.586;2022-12-29T12:05:13;6.88;;;5.80;;
30872;SDS011;17579;42.690;2.586;2022-12-29T12:07:46;6.57;;;5.18;;
30872;SDS011;17579;42.690;2.586;2022-12-29T12:13:24;9.10;;;5.18;;
30872;SDS011;17579;42.690;2.586;2022-12-29T12:18:45;7.47;;;4.63;;
30872;SDS011;17579;42.690;2.586;2022-12-29T12:41:31;8.85;;;5.28;;
30872;SDS011;17579;42.690;2.586;2022-12-29T12:44:20;8.82;;;5.50;;
30872;SDS011;17579;42.690;2.586;2022-12-29T12:55:53;9.90;;;6.00;;
30872;SDS011;17579;42.690;2.586;2022-12-29T12:58:37;12.88;;;7.07;;
30872;SDS011;17579;42.690;2.586;2022-12-29T13:10:02;9.02;;;6.53;;
30872;SDS011;17579;42.690;2.586;2022-12-29T13:12:52;13.73;;;7.30;;
30872;SDS011;17579;42.690;2.586;2022-12-29T13:21:07;9.63;;;6.55;;
30872;SDS011;17579;42.690;2.586;2022-12-29T13:23:56;9.02;;;6.38;;
30872;SDS011;17579;42.690;2.586;2022-12-29T13:26:50;11.20;;;7.43;;
30872;SDS011;17579;42.690;2.586;2022-12-29T13:35:37;10.63;;;6.68;;
30872;SDS011;17579;42.690;2.586;2022-12-29T13:38:34;12.43;;;6.65;;
30872;SDS011;17579;42.690;2.586;2022-12-29T13:41:11;10.07;;;6.05;;
30872;SDS011;17579;42.690;2.586;2022-12-29T13:43:43;10.50;;;6.72;;
30872;SDS011;17579;42.690;2.586;2022-12-29T13:46:18;13.35;;;6.43;;
30872;SDS011;17579;42.690;2.586;2022-12-29T13:48:53;13.57;;;6.10;;
30872;SDS011;17579;42.690;2.586;2022-12-29T13:51:26;14.88;;;7.20;;
30872;SDS011;17579;42.690;2.586;2022-12-29T13:54:11;11.07;;;6.45;;
30872;SDS011;17579;42.690;2.586;2022-12-29T13:59:57;10.55;;;6.60;;
30872;SDS011;17579;42.690;2.586;2022-12-29T14:02:31;9.57;;;6.60;;
30872;SDS011;17579;42.690;2.586;2022-12-29T14:05:29;10.32;;;7.18;;
30872;SDS011;17579;42.690;2.586;2022-12-29T14:08:01;11.38;;;6.63;;
30872;SDS011;17579;42.690;2.586;2022-12-29T14:10:31;9.65;;;7.07;;
30872;SDS011;17579;42.690;2.586;2022-12-29T14:15:51;13.40;;;6.30;;
30872;SDS011;17579;42.690;2.586;2022-12-29T14:18:29;9.80;;;7.32;;
30872;SDS011;17579;42.690;2.586;2022-12-29T14:21:01;13.48;;;7.18;;
30872;SDS011;17579;42.690;2.586;2022-12-29T14:23:40;9.43;;;7.20;;
30872;SDS011;17579;42.690;2.586;2022-12-29T14:26:11;9.23;;;6.05;;
30872;SDS011;17579;42.690;2.586;2022-12-29T14:28:41;10.88;;;6.78;;
30872;SDS011;17579;42.690;2.586;2022-12-29T14:36:57;8.88;;;6.90;;
30872;SDS011;17579;42.690;2.586;2022-12-29T14:39:43;9.80;;;6.60;;
30872;SDS011;17579;42.690;2.586;2022-12-29T14:42:14;9.32;;;6.40;;
30872;SDS011;17579;42.690;2.586;2022-12-29T14:47:34;9.25;;;6.28;;
30872;SDS011;17579;42.690;2.586;2022-12-29T14:50:13;10.80;;;6.68;;
30872;SDS011;17579;42.690;2.586;2022-12-29T14:58:06;11.73;;;7.28;;
30872;SDS011;17579;42.690;2.586;2022-12-29T15:00:38;14.48;;;7.60;;
30872;SDS011;17579;42.690;2.586;2022-12-29T15:03:06;10.05;;;6.93;;
30872;SDS011;17579;42.690;2.586;2022-12-29T15:05:45;12.38;;;7.35;;
30872;SDS011;17579;42.690;2.586;2022-12-29T15:08:16;17.27;;;8.25;;
30872;SDS011;17579;42.690;2.586;2022-12-29T15:10:45;13.90;;;7.97;;
30872;SDS011;17579;42.690;2.586;2022-12-29T15:13:18;10.07;;;7.57;;
30872;SDS011;17579;42.690;2.586;2022-12-29T15:15:48;9.10;;;6.07;;
30872;SDS011;17579;42.690;2.586;2022-12-29T15:18:14;9.77;;;6.15;;
30872;SDS011;17579;42.690;2.586;2022-12-29T15:20:51;9.23;;;5.25;;
30872;SDS011;17579;42.690;2.586;2022-12-29T15:23:20;11.43;;;6.70;;
30872;SDS011;17579;42.690;2.586;2022-12-29T15:25:56;13.93;;;7.72;;
30872;SDS011;17579;42.690;2.586;2022-12-29T15:28:23;12.02;;;7.47;;
30872;SDS011;17579;42.690;2.586;2022-12-29T15:30:51;9.60;;;7.20;;
30872;SDS011;17579;42.690;2.586;2022-12-29T15:33:22;8.65;;;6.50;;
30872;SDS011;17579;42.690;2.586;2022-12-29T15:35:52;11.07;;;8.10;;
30872;SDS011;17579;42.690;2.586;2022-12-29T15:38:27;12.65;;;7.57;;
30872;SDS011;17579;42.690;2.586;2022-12-29T15:40:55;10.52;;;7.25;;
30872;SDS011;17579;42.690;2.586;2022-12-29T15:46:14;9.75;;;7.30;;
30872;SDS011;17579;42.690;2.586;2022-12-29T15:48:40;11.05;;;6.50;;
30872;SDS011;17579;42.690;2.586;2022-12-29T15:53:46;8.82;;;6.38;;
30872;SDS011;17579;42.690;2.586;2022-12-29T15:56:14;8.82;;;6.55;;
30872;SDS011;17579;42.690;2.586;2022-12-29T15:58:41;9.77;;;6.80;;
30872;SDS011;17579;42.690;2.586;2022-12-29T16:03:57;11.48;;;7.35;;
30872;SDS011;17579;42.690;2.586;2022-12-29T16:06:26;12.13;;;7.43;;
30872;SDS011;17579;42.690;2.586;2022-12-29T16:09:00;12.45;;;8.43;;
30872;SDS011;17579;42.690;2.586;2022-12-29T16:11:34;10.20;;;7.78;;
30872;SDS011;17579;42.690;2.586;2022-12-29T16:14:07;10.95;;;7.65;;
30872;SDS011;17579;42.690;2.586;2022-12-29T16:16:38;11.20;;;7.35;;
30872;SDS011;17579;42.690;2.586;2022-12-29T16:21:49;14.05;;;8.15;;
30872;SDS011;17579;42.690;2.586;2022-12-29T16:24:16;15.90;;;8.68;;
30872;SDS011;17579;42.690;2.586;2022-12-29T16:26:46;13.20;;;9.57;;
30872;SDS011;17579;42.690;2.586;2022-12-29T16:29:16;15.80;;;9.57;;
30872;SDS011;17579;42.690;2.586;2022-12-29T16:31:54;15.00;;;9.68;;
30872;SDS011;17579;42.690;2.586;2022-12-29T16:42:57;18.38;;;10.10;;
30872;SDS011;17579;42.690;2.586;2022-12-29T16:48:21;15.38;;;10.30;;
30872;SDS011;17579;42.690;2.586;2022-12-29T16:51:01;16.40;;;10.57;;
30872;SDS011;17579;42.690;2.586;2022-12-29T16:53:38;15.98;;;10.63;;
30872;SDS011;17579;42.690;2.586;2022-12-29T16:56:15;17.83;;;9.90;;
30872;SDS011;17579;42.690;2.586;2022-12-29T16:58:46;15.55;;;10.07;;
30872;SDS011;17579;42.690;2.586;2022-12-29T17:01:13;14.07;;;9.15;;
30872;SDS011;17579;42.690;2.586;2022-12-29T17:03:51;12.93;;;8.95;;
30872;SDS011;17579;42.690;2.586;2022-12-29T17:06:20;13.35;;;9.20;;
30872;SDS011;17579;42.690;2.586;2022-12-29T17:08:48;15.10;;;8.35;;
30872;SDS011;17579;42.690;2.586;2022-12-29T17:11:26;12.50;;;9.00;;
30872;SDS011;17579;42.690;2.586;2022-12-29T17:14:17;12.48;;;8.20;;
30872;SDS011;17579;42.690;2.586;2022-12-29T17:17:05;11.13;;;8.23;;
30872;SDS011;17579;42.690;2.586;2022-12-29T17:19:51;9.63;;;7.57;;
30872;SDS011;17579;42.690;2.586;2022-12-29T17:22:23;12.32;;;7.82;;
30872;SDS011;17579;42.690;2.586;2022-12-29T17:24:51;11.35;;;7.90;;
30872;SDS011;17579;42.690;2.586;2022-12-29T17:27:20;13.25;;;8.30;;
30872;SDS011;17579;42.690;2.586;2022-12-29T17:29:48;17.63;;;8.20;;
30872;SDS011;17579;42.690;2.586;2022-12-29T17:32:15;12.45;;;8.07;;
30872;SDS011;17579;42.690;2.586;2022-12-29T17:34:41;13.80;;;8.32;;
30872;SDS011;17579;42.690;2.586;2022-12-29T17:39:56;12.35;;;7.85;;
30872;SDS011;17579;42.690;2.586;2022-12-29T17:42:21;12.18;;;7.57;;
30872;SDS011;17579;42.690;2.586;2022-12-29T17:44:47;9.88;;;7.35;;
30872;SDS011;17579;42.690;2.586;2022-12-29T17:47:13;8.63;;;6.70;;
30872;SDS011;17579;42.690;2.586;2022-12-29T17:49:40;10.40;;;6.78;;